createdAt,value
2023-05-01T00:07:31.776Z,1.81
2023-05-01T00:37:34.771Z,1.49
2023-05-01T01:07:38.839Z,0.97
2023-05-01T01:37:41.735Z,0.67
2023-05-01T02:07:46.010Z,0.50
2023-05-01T02:37:48.867Z,0.23
2023-05-01T03:07:54.301Z,-0.05
2023-05-01T03:37:57.280Z,-0.29
2023-05-01T04:08:01.350Z,-0.15
2023-05-01T04:38:04.225Z,0.16
2023-05-01T05:08:07.671Z,1.23
2023-05-01T05:38:10.560Z,3.23
2023-05-01T06:08:14.170Z,5.03
2023-05-01T06:38:17.218Z,6.56
2023-05-01T07:08:21.249Z,8.34
2023-05-01T07:38:24.178Z,10.01
2023-05-01T08:08:28.834Z,11.59
2023-05-01T08:38:31.784Z,13.06
2023-05-01T09:08:35.983Z,14.10
2023-05-01T09:38:38.945Z,15.13
2023-05-01T10:08:42.784Z,16.17
2023-05-01T10:38:45.637Z,16.68
2023-05-01T11:08:50.534Z,17.29
2023-05-01T11:38:53.539Z,18.33
2023-05-01T12:08:57.592Z,19.30
2023-05-01T12:39:00.514Z,19.61
2023-05-01T13:09:04.239Z,19.78
2023-05-01T13:39:07.271Z,19.50
2023-05-01T14:09:11.672Z,19.27
2023-05-01T14:39:14.687Z,18.89
2023-05-01T15:09:18.346Z,18.65
2023-05-01T15:39:21.465Z,19.04
2023-05-01T16:09:24.784Z,19.48
2023-05-01T16:39:27.649Z,18.11
2023-05-01T17:09:31.729Z,17.24
2023-05-01T17:39:34.579Z,16.45
2023-05-01T18:09:38.370Z,15.36
2023-05-01T18:39:41.426Z,13.64
2023-05-01T19:09:46.489Z,11.92
2023-05-01T19:39:50.084Z,10.86
2023-05-01T20:09:54.213Z,10.01
2023-05-01T20:39:57.844Z,9.31
2023-05-01T21:10:01.540Z,9.09
2023-05-01T21:40:05.171Z,8.71
2023-05-01T22:10:08.112Z,8.43
2023-05-01T22:40:11.659Z,8.24
2023-05-01T23:10:14.829Z,7.93
2023-05-01T23:40:18.132Z,7.76
